CST,Max TemperatureF,Mean TemperatureF,Min TemperatureF,Max Dew PointF,MeanDew PointF,Min DewpointF,Max Humidity, Mean Humidity, Min Humidity, Max Sea Level PressureIn, Mean Sea Level PressureIn, Min Sea Level PressureIn, Max VisibilityMiles, Mean VisibilityMiles, Min VisibilityMiles, Max Wind SpeedMPH, Mean Wind SpeedMPH, Max Gust SpeedMPH,PrecipitationIn, CloudCover, Events, WindDirDegrees
2011-12-1,47,38,29,31,27,21,82,64,45,30.51,30.26,30.04,10,10,10,24,9,30,0.00,3,,23
2011-12-2,43,31,19,42,26,15,93,78,63,30.51,30.35,30.15,10,9,5,15,6,22,0.05,5,Rain,158
2011-12-3,51,43,34,50,45,33,100,96,92,30.12,29.98,29.82,10,5,1,18,7,24,1.20,8,Rain-Thunderstorm,177
2011-12-4,40,34,27,32,26,23,100,77,54,30.38,30.22,30.07,10,10,10,17,7,24,T,2,,327
2011-12-5,27,24,21,23,19,15,96,82,68,30.51,30.46,30.35,10,9,7,24,12,31,T,5,,350
2011-12-6,30,23,16,14,13,12,80,65,50,30.49,30.39,30.30,10,10,6,17,6,22,0.00,4,,355
2011-12-7,45,29,13,23,17,10,92,65,37,30.28,30.20,30.14,10,10,10,13,4,16,0.00,1,,237
2011-12-8,41,30,19,30,24,17,92,72,52,30.30,30.24,30.17,10,9,6,14,4,17,0.00,3,,24
2011-12-9,38,31,24,27,22,18,92,72,52,30.56,30.42,30.28,10,10,10,14,5,18,0.00,6,,14
2011-12-10,45,33,20,30,25,17,92,73,53,30.55,30.48,30.41,10,9,4,15,5,20,0.00,1,,221
2011-12-11,48,40,31,35,33,29,100,75,49,30.42,30.31,30.22,10,7,2,22,9,29,0.00,8,,187
2011-12-12,49,46,42,36,32,29,70,63,56,30.31,30.25,30.21,10,10,10,17,9,25,0.00,8,,181
2011-12-13,46,43,39,45,42,36,100,88,76,30.32,30.19,30.03,10,4,2,12,5,16,0.31,8,Rain,143
2011-12-14,63,55,46,59,52,41,100,86,72,30.03,29.85,29.72,10,5,1,22,9,31,0.45,7,Rain-Thunderstorm,205
2011-12-15,46,36,26,41,28,23,89,70,50,30.43,30.22,29.90,10,10,8,20,10,26,0.00,1,,318
2011-12-16,42,31,20,26,23,20,100,75,49,30.51,30.44,30.39,10,9,5,7,2,8,0.00,0,,227
2011-12-17,54,40,25,33,28,23,92,65,38,30.42,30.37,30.32,10,10,8,15,3,22,0.00,0,,281
2011-12-18,60,44,27,37,33,26,100,70,40,30.31,30.09,29.91,10,10,8,20,7,25,0.00,2,,196
2011-12-19,47,41,35,44,37,34,100,83,65,30.14,30.03,29.89,10,7,2,23,8,33,1.23,6,Rain-Thunderstorm,24
2011-12-20,35,34,32,34,32,30,100,95,89,30.07,29.93,29.83,10,6,2,22,9,30,0.14,8,Rain-Snow,5
2011-12-21,49,38,27,34,30,24,100,78,56,29.99,29.87,29.81,10,9,6,14,5,18,0.00,1,,227
2011-12-22,34,29,23,31,25,18,100,82,63,30.48,30.24,29.99,10,10,9,22,10,29,T,6,,2
2011-12-23,39,29,18,23,19,16,92,66,40,30.52,30.43,30.35,10,10,9,13,6,17,0.00,0,,256
2011-12-24,49,35,21,28,25,20,96,71,46,30.42,30.38,30.34,10,10,10,10,3,13,0.00,0,,264
2011-12-25,53,39,25,27,25,23,85,60,35,30.48,30.41,30.37,10,10,10,15,4,17,0.00,0,,301
2011-12-26,50,36,21,33,29,20,100,75,50,30.35,30.12,29.95,10,10,10,14,3,20,T,4,,247
2011-12-27,48,37,26,29,26,24,89,66,42,30.14,30.07,29.95,10,10,10,18,8,26,0.00,0,,295
2011-12-28,52,38,24,31,27,24,100,71,41,30.11,29.99,29.87,10,10,10,15,5,21,0.00,0,,227
2011-12-29,57,42,27,38,35,31,62,51,40,29.83,29.72,29.57,10,10,8,16,5,24,0.00,2,,219
2011-12-30,58,47,35,40,30,25,76,52,28,29.94,29.84,29.64,10,10,10,23,10,31,0.00,0,,279
2011-12-31,66,48,30,37,31,27,85,57,28,30.01,29.75,29.53,10,10,10,32,12,41,0.03,2,Rain,228